RYR61LJ LEPA-LEZL
Flight info
| Callsign | RYR61LJ |
|---|---|
| Flight time | 1h 22m |
| Altitude | 37000 |
| Route | EPAMA N733 VLC M985 MAMIS |
| Aircraft | A320/M-SDE3FGHIRWY/LB1 |
Departure
| Time | 2026-05-06 04:39 |
|---|---|
| Airport | Palma de Mallorca Airport (LEPA) |
Arrival
| Time | 2026-05-06 06:01 |
|---|---|
| Airport | Seville Airport (LEZL) |
| Time | Latitude | Longitude | Altitude | Speed | Heading |
|---|---|---|---|---|---|
| 2026-05-06 04:26 | 39.54718 | 2.73675 | 29 ft | 0 kts | 58° |
| 2026-05-06 04:33 | 39.54712 | 2.73662 | 29 ft | 2 kts | 58° |
| 2026-05-06 04:33 | 39.54704 | 2.73645 | 29 ft | 2 kts | 58° |
| 2026-05-06 04:34 | 39.54696 | 2.73629 | 29 ft | 2 kts | 65° |
| 2026-05-06 04:34 | 39.54694 | 2.73609 | 29 ft | 2 kts | 96° |
| 2026-05-06 04:34 | 39.54698 | 2.73591 | 29 ft | 2 kts | 123° |
| 2026-05-06 04:34 | 39.54707 | 2.73578 | 29 ft | 0 kts | 145° |
| 2026-05-06 04:35 | 39.54712 | 2.73574 | 28 ft | 1 kts | 149° |
| 2026-05-06 04:35 | 39.54713 | 2.73573 | 28 ft | 0 kts | 149° |
| 2026-05-06 04:35 | 39.54713 | 2.73574 | 28 ft | 0 kts | 149° |
| 2026-05-06 04:37 | 39.54710 | 2.73576 | 28 ft | 2 kts | 149° |
| 2026-05-06 04:37 | 39.54671 | 2.73606 | 29 ft | 8 kts | 153° |
| 2026-05-06 04:37 | 39.54607 | 2.73633 | 29 ft | 11 kts | 159° |
| 2026-05-06 04:37 | 39.54529 | 2.73690 | 30 ft | 14 kts | 147° |
| 2026-05-06 04:38 | 39.54437 | 2.73765 | 28 ft | 15 kts | 147° |
| 2026-05-06 04:38 | 39.54443 | 2.73846 | 28 ft | 11 kts | 57° |
| 2026-05-06 04:38 | 39.54565 | 2.74103 | 28 ft | 68 kts | 58° |
| 2026-05-06 04:38 | 39.54936 | 2.74887 | 12 ft | 133 kts | 59° |
| 2026-05-06 04:39 | 39.55506 | 2.76093 | 171 ft | 168 kts | 58° |
| 2026-05-06 04:39 | 39.56098 | 2.77371 | 824 ft | 168 kts | 58° |
| 2026-05-06 04:39 | 39.56688 | 2.78653 | 1542 ft | 167 kts | 58° |
| 2026-05-06 04:39 | 39.57278 | 2.79955 | 2163 ft | 173 kts | 58° |
| 2026-05-06 04:40 | 39.57897 | 2.81320 | 2692 ft | 184 kts | 58° |
| 2026-05-06 04:40 | 39.58555 | 2.82806 | 3159 ft | 199 kts | 59° |
| 2026-05-06 04:40 | 39.59269 | 2.84441 | 3556 ft | 221 kts | 59° |
| 2026-05-06 04:40 | 39.60048 | 2.86214 | 4185 ft | 231 kts | 59° |
| 2026-05-06 04:41 | 39.60851 | 2.88036 | 5000 ft | 234 kts | 59° |
| 2026-05-06 04:41 | 39.61655 | 2.89847 | 5773 ft | 239 kts | 59° |
| 2026-05-06 04:41 | 39.62568 | 2.91658 | 6519 ft | 242 kts | 43° |
| 2026-05-06 04:41 | 39.64006 | 2.92657 | 7213 ft | 240 kts | 3° |
| 2026-05-06 04:42 | 39.65592 | 2.92301 | 7918 ft | 234 kts | 324° |
| 2026-05-06 04:42 | 39.66632 | 2.90760 | 8601 ft | 229 kts | 289° |
| 2026-05-06 04:42 | 39.67110 | 2.88837 | 9393 ft | 229 kts | 282° |
| 2026-05-06 04:42 | 39.67494 | 2.86850 | 10182 ft | 229 kts | 280° |
| 2026-05-06 04:43 | 39.67841 | 2.84834 | 10942 ft | 230 kts | 278° |
| 2026-05-06 04:43 | 39.68132 | 2.82823 | 11677 ft | 231 kts | 276° |
| 2026-05-06 04:43 | 39.68362 | 2.80744 | 12392 ft | 232 kts | 273° |
| 2026-05-06 04:43 | 39.68508 | 2.78692 | 13096 ft | 232 kts | 270° |
| 2026-05-06 04:44 | 39.68568 | 2.76606 | 13788 ft | 232 kts | 267° |
| 2026-05-06 04:44 | 39.68601 | 2.74500 | 14345 ft | 240 kts | 271° |
| 2026-05-06 04:44 | 39.68883 | 2.72287 | 14649 ft | 259 kts | 281° |
| 2026-05-06 04:44 | 39.69559 | 2.70050 | 14936 ft | 280 kts | 293° |
| 2026-05-06 04:45 | 39.70647 | 2.67854 | 15223 ft | 299 kts | 299° |
| 2026-05-06 04:45 | 39.71726 | 2.65460 | 15505 ft | 310 kts | 291° |
| 2026-05-06 04:45 | 39.72630 | 2.62910 | 15929 ft | 318 kts | 290° |
| 2026-05-06 04:45 | 39.73539 | 2.60280 | 16535 ft | 321 kts | 289° |
| 2026-05-06 04:46 | 39.74443 | 2.57616 | 17117 ft | 323 kts | 289° |
| 2026-05-06 04:46 | 39.75333 | 2.54979 | 17711 ft | 325 kts | 289° |
| 2026-05-06 04:46 | 39.76243 | 2.52265 | 18289 ft | 327 kts | 289° |
| 2026-05-06 04:46 | 39.77140 | 2.49577 | 18834 ft | 329 kts | 289° |
| 2026-05-06 04:47 | 39.78046 | 2.46855 | 19369 ft | 331 kts | 289° |
| 2026-05-06 04:47 | 39.78959 | 2.44111 | 19897 ft | 334 kts | 289° |
| 2026-05-06 04:47 | 39.79875 | 2.41351 | 20401 ft | 337 kts | 289° |
| 2026-05-06 04:47 | 39.80813 | 2.38524 | 20907 ft | 340 kts | 289° |
| 2026-05-06 04:48 | 39.81731 | 2.35705 | 21402 ft | 341 kts | 285° |
| 2026-05-06 04:48 | 39.82230 | 2.32728 | 21878 ft | 337 kts | 270° |
| 2026-05-06 04:48 | 39.82104 | 2.29717 | 22366 ft | 336 kts | 257° |
| 2026-05-06 04:48 | 39.81496 | 2.26787 | 22843 ft | 338 kts | 252° |
| 2026-05-06 04:49 | 39.80816 | 2.23868 | 23295 ft | 341 kts | 252° |
| 2026-05-06 04:49 | 39.80123 | 2.20910 | 23709 ft | 345 kts | 252° |
| 2026-05-06 04:49 | 39.79415 | 2.17903 | 23902 ft | 354 kts | 252° |
| 2026-05-06 04:49 | 39.78699 | 2.14857 | 24227 ft | 359 kts | 252° |
| 2026-05-06 04:50 | 39.77969 | 2.11762 | 24661 ft | 361 kts | 252° |
| 2026-05-06 04:50 | 39.77228 | 2.08622 | 25100 ft | 362 kts | 252° |
| 2026-05-06 04:50 | 39.76493 | 2.05506 | 25512 ft | 364 kts | 252° |
| 2026-05-06 04:50 | 39.75752 | 2.02372 | 25904 ft | 366 kts | 252° |
| 2026-05-06 04:51 | 39.75005 | 1.99217 | 26301 ft | 367 kts | 251° |
| 2026-05-06 04:51 | 39.74248 | 1.96026 | 26686 ft | 369 kts | 252° |
| 2026-05-06 04:51 | 39.73490 | 1.92834 | 27045 ft | 371 kts | 251° |
| 2026-05-06 04:51 | 39.72737 | 1.89672 | 27413 ft | 372 kts | 252° |
| 2026-05-06 04:52 | 39.71974 | 1.86468 | 27819 ft | 373 kts | 251° |
| 2026-05-06 04:52 | 39.71205 | 1.83242 | 28189 ft | 373 kts | 251° |
| 2026-05-06 04:52 | 39.70443 | 1.80052 | 28513 ft | 375 kts | 251° |
| 2026-05-06 04:52 | 39.69666 | 1.76809 | 28815 ft | 377 kts | 252° |
| 2026-05-06 04:53 | 39.68885 | 1.73545 | 29135 ft | 378 kts | 252° |
| 2026-05-06 04:53 | 39.68106 | 1.70298 | 29441 ft | 380 kts | 252° |
| 2026-05-06 04:53 | 39.67318 | 1.67009 | 29722 ft | 381 kts | 251° |
| 2026-05-06 04:53 | 39.66530 | 1.63730 | 30010 ft | 383 kts | 252° |
| 2026-05-06 04:54 | 39.65742 | 1.60458 | 30305 ft | 384 kts | 251° |
| 2026-05-06 04:54 | 39.64951 | 1.57180 | 30578 ft | 385 kts | 252° |
| 2026-05-06 04:54 | 39.64141 | 1.53827 | 30829 ft | 387 kts | 252° |
| 2026-05-06 04:54 | 39.63336 | 1.50502 | 31068 ft | 389 kts | 252° |
| 2026-05-06 04:55 | 39.62529 | 1.47172 | 31299 ft | 390 kts | 252° |
| 2026-05-06 04:55 | 39.61752 | 1.43821 | 31531 ft | 392 kts | 254° |
| 2026-05-06 04:55 | 39.61091 | 1.40408 | 31775 ft | 393 kts | 256° |
| 2026-05-06 04:55 | 39.60557 | 1.36952 | 32052 ft | 393 kts | 259° |
| 2026-05-06 04:56 | 39.60153 | 1.33453 | 32357 ft | 393 kts | 261° |
| 2026-05-06 04:56 | 39.59882 | 1.29943 | 32687 ft | 392 kts | 263° |
| 2026-05-06 04:56 | 39.59678 | 1.26403 | 33008 ft | 391 kts | 263° |
| 2026-05-06 04:56 | 39.59477 | 1.22914 | 33293 ft | 390 kts | 263° |
| 2026-05-06 04:57 | 39.59277 | 1.19433 | 33599 ft | 389 kts | 263° |
| 2026-05-06 04:57 | 39.59080 | 1.15980 | 33905 ft | 387 kts | 263° |
| 2026-05-06 04:57 | 39.58882 | 1.12529 | 34188 ft | 386 kts | 263° |
| 2026-05-06 04:57 | 39.58684 | 1.09075 | 34455 ft | 385 kts | 263° |
| 2026-05-06 04:58 | 39.58485 | 1.05606 | 34682 ft | 384 kts | 263° |
| 2026-05-06 04:58 | 39.58286 | 1.02177 | 34867 ft | 384 kts | 263° |
| 2026-05-06 04:58 | 39.58087 | 0.98762 | 35039 ft | 384 kts | 263° |
| 2026-05-06 04:58 | 39.57884 | 0.95304 | 35213 ft | 384 kts | 264° |
| 2026-05-06 04:59 | 39.57681 | 0.91841 | 35340 ft | 385 kts | 263° |
| 2026-05-06 04:59 | 39.57478 | 0.88409 | 35456 ft | 386 kts | 264° |
| 2026-05-06 04:59 | 39.57274 | 0.84967 | 35561 ft | 387 kts | 263° |
| 2026-05-06 04:59 | 39.57066 | 0.81464 | 35682 ft | 388 kts | 264° |
| 2026-05-06 05:00 | 39.56859 | 0.78012 | 35795 ft | 388 kts | 264° |
| 2026-05-06 05:00 | 39.56649 | 0.74518 | 35910 ft | 389 kts | 264° |
| 2026-05-06 05:00 | 39.56440 | 0.71069 | 36010 ft | 390 kts | 264° |
| 2026-05-06 05:01 | 39.56012 | 0.64085 | 36194 ft | 391 kts | 264° |
| 2026-05-06 05:01 | 39.55798 | 0.60585 | 36306 ft | 391 kts | 264° |
| 2026-05-06 05:01 | 39.55582 | 0.57052 | 36413 ft | 392 kts | 264° |
| 2026-05-06 05:02 | 39.55146 | 0.50050 | 36582 ft | 393 kts | 264° |
| 2026-05-06 05:02 | 39.54702 | 0.42980 | 36766 ft | 394 kts | 264° |
| 2026-05-06 05:03 | 39.54254 | 0.35916 | 36914 ft | 395 kts | 264° |
| 2026-05-06 05:03 | 39.53798 | 0.28813 | 36935 ft | 396 kts | 263° |
| 2026-05-06 05:04 | 39.53341 | 0.21740 | 36934 ft | 396 kts | 263° |
| 2026-05-06 05:04 | 39.52876 | 0.14616 | 36948 ft | 396 kts | 263° |
| 2026-05-06 05:05 | 39.52408 | 0.07527 | 36939 ft | 396 kts | 263° |
| 2026-05-06 05:05 | 39.51934 | 0.00433 | 36943 ft | 396 kts | 264° |
| 2026-05-06 05:06 | 39.51456 | -0.06678 | 36939 ft | 396 kts | 264° |
| 2026-05-06 05:06 | 39.50975 | -0.13761 | 36953 ft | 396 kts | 263° |
| 2026-05-06 05:07 | 39.50492 | -0.20827 | 36950 ft | 395 kts | 263° |
| 2026-05-06 05:07 | 39.50001 | -0.27915 | 36957 ft | 395 kts | 263° |
| 2026-05-06 05:08 | 39.49506 | -0.35008 | 36958 ft | 396 kts | 263° |
| 2026-05-06 05:08 | 39.48616 | -0.42028 | 36956 ft | 396 kts | 256° |
| 2026-05-06 05:09 | 39.46886 | -0.48744 | 36967 ft | 396 kts | 248° |
| 2026-05-06 05:09 | 39.44344 | -0.55065 | 36960 ft | 398 kts | 240° |
| 2026-05-06 05:10 | 39.41121 | -0.60905 | 36969 ft | 399 kts | 236° |
| 2026-05-06 05:10 | 39.37767 | -0.66668 | 36972 ft | 399 kts | 235° |
| 2026-05-06 05:11 | 39.34422 | -0.72381 | 36966 ft | 399 kts | 235° |
| 2026-05-06 05:11 | 39.31070 | -0.78087 | 36966 ft | 399 kts | 235° |
| 2026-05-06 05:12 | 39.27724 | -0.83766 | 36978 ft | 400 kts | 235° |
| 2026-05-06 05:12 | 39.24361 | -0.89459 | 36974 ft | 400 kts | 235° |
| 2026-05-06 05:13 | 39.20983 | -0.95163 | 36970 ft | 399 kts | 235° |
| 2026-05-06 05:13 | 39.17621 | -1.00825 | 36960 ft | 400 kts | 235° |
| 2026-05-06 05:14 | 39.14228 | -1.06531 | 36958 ft | 400 kts | 235° |
| 2026-05-06 05:14 | 39.10850 | -1.12209 | 36960 ft | 401 kts | 235° |
| 2026-05-06 05:15 | 39.07480 | -1.17860 | 36967 ft | 401 kts | 235° |
| 2026-05-06 05:15 | 39.04084 | -1.23541 | 36970 ft | 401 kts | 235° |
| 2026-05-06 05:16 | 39.00696 | -1.29198 | 36977 ft | 400 kts | 235° |
| 2026-05-06 05:16 | 38.97300 | -1.34860 | 36970 ft | 400 kts | 235° |
| 2026-05-06 05:17 | 38.93917 | -1.40491 | 36983 ft | 400 kts | 235° |
| 2026-05-06 05:17 | 38.90507 | -1.46158 | 36971 ft | 400 kts | 235° |
| 2026-05-06 05:18 | 38.87116 | -1.51785 | 36983 ft | 400 kts | 235° |
| 2026-05-06 05:18 | 38.83709 | -1.57426 | 36973 ft | 400 kts | 235° |
| 2026-05-06 05:19 | 38.80297 | -1.63067 | 36982 ft | 400 kts | 235° |
| 2026-05-06 05:19 | 38.76887 | -1.68695 | 36986 ft | 400 kts | 234° |
| 2026-05-06 05:20 | 38.73455 | -1.74347 | 36971 ft | 401 kts | 234° |
| 2026-05-06 05:20 | 38.70047 | -1.79952 | 36971 ft | 400 kts | 234° |
| 2026-05-06 05:21 | 38.66618 | -1.85575 | 36975 ft | 400 kts | 234° |
| 2026-05-06 05:21 | 38.63195 | -1.91181 | 36981 ft | 400 kts | 234° |
| 2026-05-06 05:22 | 38.59769 | -1.96782 | 36974 ft | 401 kts | 234° |
| 2026-05-06 05:22 | 38.56331 | -2.02396 | 36967 ft | 400 kts | 234° |
| 2026-05-06 05:23 | 38.52916 | -2.07957 | 36979 ft | 400 kts | 234° |
| 2026-05-06 05:23 | 38.47761 | -2.16342 | 36977 ft | 400 kts | 234° |
| 2026-05-06 05:24 | 38.44332 | -2.21909 | 36972 ft | 400 kts | 234° |
| 2026-05-06 05:24 | 38.40895 | -2.27478 | 36972 ft | 400 kts | 235° |
| 2026-05-06 05:25 | 38.37449 | -2.33048 | 36974 ft | 400 kts | 234° |
| 2026-05-06 05:25 | 38.33768 | -2.38351 | 36979 ft | 402 kts | 230° |
| 2026-05-06 05:26 | 38.29920 | -2.43531 | 36983 ft | 402 kts | 230° |
| 2026-05-06 05:26 | 38.26065 | -2.48713 | 36982 ft | 402 kts | 230° |
| 2026-05-06 05:27 | 38.22230 | -2.53856 | 36978 ft | 402 kts | 230° |
| 2026-05-06 05:27 | 38.18386 | -2.59002 | 36977 ft | 402 kts | 230° |
| 2026-05-06 05:28 | 38.14541 | -2.64135 | 36965 ft | 402 kts | 230° |
| 2026-05-06 05:28 | 38.10706 | -2.69252 | 36980 ft | 402 kts | 230° |
| 2026-05-06 05:29 | 38.06850 | -2.74386 | 36964 ft | 402 kts | 229° |
| 2026-05-06 05:29 | 38.02982 | -2.79527 | 36960 ft | 403 kts | 230° |
| 2026-05-06 05:30 | 37.99106 | -2.84673 | 36962 ft | 403 kts | 229° |
| 2026-05-06 05:30 | 37.95249 | -2.89780 | 36974 ft | 403 kts | 230° |
| 2026-05-06 05:31 | 37.91360 | -2.94922 | 36968 ft | 403 kts | 230° |
| 2026-05-06 05:31 | 37.87510 | -3.00007 | 36976 ft | 403 kts | 230° |
| 2026-05-06 05:32 | 37.83630 | -3.05121 | 36970 ft | 403 kts | 230° |
| 2026-05-06 05:32 | 37.79772 | -3.10224 | 36969 ft | 401 kts | 232° |
| 2026-05-06 05:33 | 37.76515 | -3.15874 | 36970 ft | 397 kts | 242° |
| 2026-05-06 05:33 | 37.74235 | -3.22159 | 36973 ft | 395 kts | 252° |
| 2026-05-06 05:34 | 37.72974 | -3.28911 | 36972 ft | 396 kts | 262° |
| 2026-05-06 05:34 | 37.72508 | -3.35814 | 36984 ft | 396 kts | 265° |
| 2026-05-06 05:35 | 37.72118 | -3.42752 | 36987 ft | 396 kts | 265° |
| 2026-05-06 05:35 | 37.71926 | -3.46213 | 36857 ft | 396 kts | 265° |
| 2026-05-06 05:35 | 37.71733 | -3.49651 | 36557 ft | 394 kts | 265° |
| 2026-05-06 05:36 | 37.71542 | -3.53091 | 36295 ft | 391 kts | 265° |
| 2026-05-06 05:36 | 37.71352 | -3.56456 | 36077 ft | 389 kts | 265° |
| 2026-05-06 05:36 | 37.71161 | -3.59845 | 35854 ft | 387 kts | 265° |
| 2026-05-06 05:36 | 37.70969 | -3.63227 | 35631 ft | 386 kts | 265° |
| 2026-05-06 05:37 | 37.70777 | -3.66596 | 35406 ft | 386 kts | 264° |
| 2026-05-06 05:37 | 37.70582 | -3.69970 | 35179 ft | 386 kts | 264° |
| 2026-05-06 05:37 | 37.70386 | -3.73366 | 34955 ft | 387 kts | 264° |
| 2026-05-06 05:37 | 37.70190 | -3.76720 | 34670 ft | 388 kts | 264° |
| 2026-05-06 05:38 | 37.69992 | -3.80102 | 34202 ft | 388 kts | 264° |
| 2026-05-06 05:38 | 37.69790 | -3.83511 | 33558 ft | 389 kts | 264° |
| 2026-05-06 05:38 | 37.69589 | -3.86903 | 32832 ft | 389 kts | 264° |
| 2026-05-06 05:38 | 37.69387 | -3.90303 | 32051 ft | 391 kts | 264° |
| 2026-05-06 05:39 | 37.69184 | -3.93709 | 31281 ft | 392 kts | 264° |
| 2026-05-06 05:39 | 37.68981 | -3.97101 | 30781 ft | 387 kts | 265° |
| 2026-05-06 05:39 | 37.68778 | -4.00458 | 30296 ft | 382 kts | 265° |
| 2026-05-06 05:39 | 37.68577 | -4.03767 | 29802 ft | 377 kts | 265° |
| 2026-05-06 05:40 | 37.68379 | -4.07023 | 29307 ft | 373 kts | 265° |
| 2026-05-06 05:40 | 37.68182 | -4.10241 | 28804 ft | 369 kts | 265° |
| 2026-05-06 05:40 | 37.67984 | -4.13462 | 28294 ft | 366 kts | 265° |
| 2026-05-06 05:40 | 37.67787 | -4.16662 | 27804 ft | 362 kts | 265° |
| 2026-05-06 05:41 | 37.67594 | -4.19766 | 27319 ft | 359 kts | 265° |
| 2026-05-06 05:41 | 37.67400 | -4.22877 | 26839 ft | 356 kts | 265° |
| 2026-05-06 05:41 | 37.67205 | -4.25984 | 26358 ft | 352 kts | 265° |
| 2026-05-06 05:41 | 37.67013 | -4.29037 | 25888 ft | 349 kts | 265° |
| 2026-05-06 05:42 | 37.66821 | -4.32068 | 25411 ft | 346 kts | 265° |
| 2026-05-06 05:42 | 37.66629 | -4.35102 | 24931 ft | 344 kts | 265° |
| 2026-05-06 05:42 | 37.66441 | -4.38055 | 24463 ft | 342 kts | 265° |
| 2026-05-06 05:42 | 37.66250 | -4.41046 | 23975 ft | 340 kts | 265° |
| 2026-05-06 05:43 | 37.66061 | -4.44007 | 23500 ft | 338 kts | 265° |
| 2026-05-06 05:43 | 37.65873 | -4.46921 | 23026 ft | 337 kts | 265° |
| 2026-05-06 05:43 | 37.65684 | -4.49846 | 22544 ft | 336 kts | 265° |
| 2026-05-06 05:43 | 37.65492 | -4.52790 | 22054 ft | 336 kts | 265° |
| 2026-05-06 05:44 | 37.65300 | -4.55725 | 21577 ft | 335 kts | 265° |
| 2026-05-06 05:44 | 37.65109 | -4.58638 | 21094 ft | 335 kts | 265° |
| 2026-05-06 05:44 | 37.64918 | -4.61552 | 20603 ft | 334 kts | 265° |
| 2026-05-06 05:44 | 37.64724 | -4.64485 | 20123 ft | 334 kts | 265° |
| 2026-05-06 05:45 | 37.64532 | -4.67389 | 19644 ft | 334 kts | 265° |
| 2026-05-06 05:45 | 37.64340 | -4.70280 | 19163 ft | 334 kts | 265° |
| 2026-05-06 05:45 | 37.64146 | -4.73192 | 18675 ft | 333 kts | 265° |
| 2026-05-06 05:45 | 37.63952 | -4.76101 | 18187 ft | 334 kts | 265° |
| 2026-05-06 05:46 | 37.63757 | -4.79004 | 17683 ft | 334 kts | 265° |
| 2026-05-06 05:46 | 37.63562 | -4.81906 | 17195 ft | 334 kts | 265° |
| 2026-05-06 05:46 | 37.63364 | -4.84836 | 16707 ft | 334 kts | 265° |
| 2026-05-06 05:46 | 37.63167 | -4.87726 | 16224 ft | 333 kts | 265° |
| 2026-05-06 05:47 | 37.62969 | -4.90641 | 15741 ft | 333 kts | 265° |
| 2026-05-06 05:47 | 37.62774 | -4.93497 | 15267 ft | 332 kts | 265° |
| 2026-05-06 05:47 | 37.62573 | -4.96418 | 14784 ft | 332 kts | 265° |
| 2026-05-06 05:47 | 37.62376 | -4.99287 | 14315 ft | 331 kts | 265° |
| 2026-05-06 05:48 | 37.62176 | -5.02184 | 13838 ft | 329 kts | 265° |
| 2026-05-06 05:48 | 37.61979 | -5.05021 | 13363 ft | 328 kts | 265° |
| 2026-05-06 05:48 | 37.61780 | -5.07871 | 12863 ft | 328 kts | 265° |
| 2026-05-06 05:48 | 37.61581 | -5.10719 | 12350 ft | 327 kts | 265° |
| 2026-05-06 05:49 | 37.61380 | -5.13583 | 11851 ft | 326 kts | 265° |
| 2026-05-06 05:49 | 37.61182 | -5.16396 | 11375 ft | 325 kts | 265° |
| 2026-05-06 05:49 | 37.60981 | -5.19232 | 10881 ft | 324 kts | 265° |
| 2026-05-06 05:49 | 37.60780 | -5.22074 | 10431 ft | 321 kts | 265° |
| 2026-05-06 05:50 | 37.60717 | -5.24812 | 10248 ft | 308 kts | 274° |
| 2026-05-06 05:50 | 37.60974 | -5.27406 | 10104 ft | 295 kts | 282° |
| 2026-05-06 05:50 | 37.61411 | -5.29893 | 9975 ft | 282 kts | 283° |
| 2026-05-06 05:50 | 37.61860 | -5.32287 | 9641 ft | 279 kts | 284° |
| 2026-05-06 05:51 | 37.62303 | -5.34642 | 9274 ft | 278 kts | 284° |
| 2026-05-06 05:51 | 37.62746 | -5.37014 | 8895 ft | 276 kts | 284° |
| 2026-05-06 05:51 | 37.63180 | -5.39353 | 8538 ft | 274 kts | 284° |
| 2026-05-06 05:51 | 37.63610 | -5.41684 | 8184 ft | 272 kts | 284° |
| 2026-05-06 05:52 | 37.64036 | -5.44001 | 7830 ft | 271 kts | 284° |
| 2026-05-06 05:52 | 37.64460 | -5.46306 | 7485 ft | 269 kts | 284° |
| 2026-05-06 05:52 | 37.64876 | -5.48580 | 7142 ft | 267 kts | 283° |
| 2026-05-06 05:52 | 37.64955 | -5.50904 | 6761 ft | 267 kts | 257° |
| 2026-05-06 05:53 | 37.64113 | -5.52977 | 6415 ft | 268 kts | 229° |
| 2026-05-06 05:53 | 37.62752 | -5.54548 | 6096 ft | 266 kts | 222° |
| 2026-05-06 05:53 | 37.61368 | -5.56068 | 5767 ft | 265 kts | 223° |
| 2026-05-06 05:53 | 37.59972 | -5.57621 | 5430 ft | 264 kts | 223° |
| 2026-05-06 05:54 | 37.58614 | -5.59149 | 5109 ft | 263 kts | 223° |
| 2026-05-06 05:54 | 37.57238 | -5.60705 | 4837 ft | 266 kts | 223° |
| 2026-05-06 05:54 | 37.55878 | -5.62247 | 4483 ft | 265 kts | 223° |
| 2026-05-06 05:54 | 37.54449 | -5.63687 | 4202 ft | 262 kts | 208° |
| 2026-05-06 05:55 | 37.52720 | -5.64267 | 3795 ft | 262 kts | 178° |
| 2026-05-06 05:55 | 37.50957 | -5.63786 | 3455 ft | 258 kts | 154° |
| 2026-05-06 05:55 | 37.49473 | -5.62638 | 3367 ft | 244 kts | 142° |
| 2026-05-06 05:55 | 37.48100 | -5.61474 | 3334 ft | 232 kts | 147° |
| 2026-05-06 05:56 | 37.46693 | -5.60571 | 3292 ft | 223 kts | 155° |
| 2026-05-06 05:56 | 37.45209 | -5.59950 | 3226 ft | 225 kts | 168° |
| 2026-05-06 05:56 | 37.43685 | -5.60155 | 3039 ft | 225 kts | 209° |
| 2026-05-06 05:56 | 37.42597 | -5.61548 | 2897 ft | 224 kts | 244° |
| 2026-05-06 05:57 | 37.42094 | -5.63387 | 2657 ft | 224 kts | 261° |
| 2026-05-06 05:57 | 37.41912 | -5.65315 | 2494 ft | 218 kts | 268° |
| 2026-05-06 05:57 | 37.41871 | -5.67206 | 2493 ft | 220 kts | 271° |
| 2026-05-06 05:57 | 37.41872 | -5.69137 | 2491 ft | 219 kts | 271° |
| 2026-05-06 05:58 | 37.41872 | -5.70988 | 2473 ft | 206 kts | 271° |
| 2026-05-06 05:58 | 37.41866 | -5.72770 | 2397 ft | 200 kts | 271° |
| 2026-05-06 05:58 | 37.41857 | -5.74469 | 2200 ft | 193 kts | 271° |
| 2026-05-06 05:58 | 37.41847 | -5.76147 | 1912 ft | 191 kts | 271° |
| 2026-05-06 05:59 | 37.41839 | -5.77794 | 1630 ft | 183 kts | 271° |
| 2026-05-06 05:59 | 37.41830 | -5.79344 | 1395 ft | 168 kts | 271° |
| 2026-05-06 05:59 | 37.41824 | -5.80738 | 1163 ft | 155 kts | 271° |
| 2026-05-06 05:59 | 37.41819 | -5.82045 | 947 ft | 141 kts | 271° |
| 2026-05-06 06:00 | 37.41815 | -5.83235 | 772 ft | 136 kts | 271° |
| 2026-05-06 06:00 | 37.41811 | -5.84424 | 604 ft | 135 kts | 270° |
| 2026-05-06 06:00 | 37.41807 | -5.85595 | 430 ft | 134 kts | 270° |
| 2026-05-06 06:00 | 37.41803 | -5.86763 | 249 ft | 133 kts | 270° |
| 2026-05-06 06:01 | 37.41799 | -5.87931 | 104 ft | 128 kts | 270° |
| 2026-05-06 06:01 | 37.41794 | -5.88912 | 91 ft | 90 kts | 270° |
| 2026-05-06 06:01 | 37.41793 | -5.89493 | 87 ft | 49 kts | 269° |
| 2026-05-06 06:01 | 37.41806 | -5.89764 | 87 ft | 17 kts | 298° |
| 2026-05-06 06:02 | 37.41904 | -5.89833 | 89 ft | 15 kts | 338° |
| 2026-05-06 06:02 | 37.42000 | -5.89884 | 90 ft | 13 kts | 335° |
| 2026-05-06 06:02 | 37.42073 | -5.89931 | 90 ft | 10 kts | 324° |
| 2026-05-06 06:02 | 37.42129 | -5.89999 | 90 ft | 11 kts | 315° |
| 2026-05-06 06:03 | 37.42153 | -5.90029 | 90 ft | 0 kts | 314° |